createdAt,value
2017-10-19T00:00:37.941Z,14.57
2017-10-19T00:01:18.366Z,14.6
2017-10-19T00:01:58.803Z,14.6
2017-10-19T00:02:39.203Z,14.66
2017-10-19T00:03:19.653Z,14.63
2017-10-19T00:04:00.056Z,14.66
2017-10-19T00:04:40.494Z,14.56
2017-10-19T00:05:20.890Z,14.61
2017-10-19T00:06:01.342Z,14.6
2017-10-19T00:06:41.807Z,14.53
2017-10-19T00:07:22.192Z,14.56
2017-10-19T00:08:02.544Z,14.56
2017-10-19T00:08:43.031Z,14.48
2017-10-19T00:09:23.437Z,14.46
2017-10-19T00:10:03.898Z,14.42
2017-10-19T00:10:44.311Z,14.44
2017-10-19T00:11:24.697Z,14.46
2017-10-19T00:12:05.165Z,14.42
2017-10-19T00:12:45.528Z,14.45
2017-10-19T00:13:25.993Z,14.41
2017-10-19T00:14:06.321Z,14.42
2017-10-19T00:14:46.720Z,14.39
2017-10-19T00:15:27.132Z,14.31
2017-10-19T00:16:07.576Z,14.27
2017-10-19T00:16:47.917Z,14.34
2017-10-19T00:17:28.359Z,14.34
2017-10-19T00:18:08.718Z,14.31
2017-10-19T00:18:49.180Z,14.29
2017-10-19T00:19:29.613Z,14.3
2017-10-19T00:20:10.052Z,14.3
2017-10-19T00:20:50.492Z,14.26
2017-10-19T00:21:30.854Z,14.29
2017-10-19T00:22:11.283Z,14.19
2017-10-19T00:22:51.684Z,14.13
2017-10-19T00:23:32.067Z,14.16
2017-10-19T00:24:12.634Z,14.13
2017-10-19T00:24:53.080Z,14.16
2017-10-19T00:25:33.528Z,14.06
2017-10-19T00:26:13.859Z,14.09
2017-10-19T00:26:54.311Z,14.11
2017-10-19T00:27:34.738Z,14.13
2017-10-19T00:28:15.223Z,14.09
2017-10-19T00:28:55.689Z,14.16
2017-10-19T00:29:36.024Z,14.19
2017-10-19T00:30:16.431Z,14.21
2017-10-19T00:30:56.872Z,14.16
2017-10-19T00:31:37.264Z,14.17
2017-10-19T00:32:17.715Z,14.24
2017-10-19T00:32:58.097Z,14.2
2017-10-19T00:33:38.510Z,14.31
2017-10-19T00:34:18.979Z,14.31
2017-10-19T00:34:59.441Z,14.31
2017-10-19T00:35:39.807Z,14.48
2017-10-19T00:36:20.311Z,14.54
2017-10-19T00:37:00.750Z,14.56
2017-10-19T00:37:41.111Z,14.52
2017-10-19T00:38:21.682Z,14.57
2017-10-19T00:39:02.086Z,14.61
2017-10-19T00:39:42.537Z,14.56
2017-10-19T00:40:22.978Z,14.59
2017-10-19T00:41:03.408Z,14.57
2017-10-19T00:41:43.787Z,14.48
2017-10-19T00:42:24.219Z,14.52
2017-10-19T00:43:04.716Z,14.46
2017-10-19T00:43:45.108Z,14.53
2017-10-19T00:44:25.528Z,14.38
2017-10-19T00:45:05.958Z,14.44
2017-10-19T00:45:46.366Z,14.42
2017-10-19T00:46:27.629Z,14.41
2017-10-19T00:47:07.199Z,14.41
2017-10-19T00:47:47.639Z,14.42
2017-10-19T00:48:28.039Z,14.44
2017-10-19T00:49:08.507Z,14.45
2017-10-19T00:49:48.848Z,14.39
2017-10-19T00:50:29.244Z,14.45
2017-10-19T00:51:09.646Z,14.44
2017-10-19T00:51:50.090Z,14.38
2017-10-19T00:52:30.523Z,14.34
2017-10-19T00:53:10.945Z,14.35
2017-10-19T00:53:51.375Z,14.36
2017-10-19T00:54:31.801Z,14.39
2017-10-19T00:55:12.168Z,14.31
2017-10-19T00:55:52.628Z,14.34
2017-10-19T00:56:33.006Z,14.21
2017-10-19T00:57:13.422Z,14.26
2017-10-19T00:57:53.821Z,14.21
2017-10-19T00:58:34.306Z,14.24
2017-10-19T00:59:14.757Z,14.2
2017-10-19T00:59:55.224Z,14.2
2017-10-19T01:00:35.607Z,14.2
2017-10-19T01:01:16.056Z,14.27
2017-10-19T01:01:56.450Z,14.24
2017-10-19T01:02:36.831Z,14.23
2017-10-19T01:03:17.271Z,14.21
2017-10-19T01:03:57.733Z,14.24
2017-10-19T01:04:38.067Z,14.2
2017-10-19T01:05:18.487Z,14.11
2017-10-19T01:05:58.943Z,14.2
2017-10-19T01:06:39.337Z,14.19
2017-10-19T01:07:19.699Z,14.16
2017-10-19T01:08:00.112Z,14.16
2017-10-19T01:08:40.563Z,14.17
2017-10-19T01:09:21.031Z,14.17
2017-10-19T01:10:01.426Z,14.19
2017-10-19T01:10:41.810Z,14.19
2017-10-19T01:11:22.304Z,14.13
2017-10-19T01:12:02.713Z,14.17
2017-10-19T01:12:43.163Z,14.12
2017-10-19T01:13:23.590Z,14.12
2017-10-19T01:14:04.057Z,14.16
2017-10-19T01:14:44.456Z,14.19
2017-10-19T01:15:24.839Z,14.11
2017-10-19T01:16:05.351Z,14.12
2017-10-19T01:16:45.793Z,14.05
2017-10-19T01:17:26.282Z,13.99
2017-10-19T01:18:06.695Z,14.08
2017-10-19T01:18:47.160Z,13.98
2017-10-19T01:19:27.631Z,13.99
2017-10-19T01:20:08.002Z,13.86
2017-10-19T01:20:48.482Z,13.9
2017-10-19T01:21:28.910Z,13.87
2017-10-19T01:22:09.360Z,13.8
2017-10-19T01:22:49.852Z,13.83
2017-10-19T01:23:30.312Z,13.76
2017-10-19T01:24:10.787Z,13.72
2017-10-19T01:24:51.153Z,13.8
2017-10-19T01:25:31.564Z,13.79
2017-10-19T01:26:11.965Z,13.79
2017-10-19T01:26:52.464Z,13.73
2017-10-19T01:27:32.808Z,13.71
2017-10-19T01:28:13.206Z,13.61
2017-10-19T01:28:53.624Z,13.71
2017-10-19T01:29:33.983Z,13.59
2017-10-19T01:30:14.457Z,13.63
2017-10-19T01:30:54.858Z,13.59
2017-10-19T01:31:35.240Z,13.59
2017-10-19T01:32:15.651Z,13.53
2017-10-19T01:32:56.099Z,13.5
2017-10-19T01:33:36.466Z,13.46
2017-10-19T01:34:16.884Z,13.53
2017-10-19T01:34:57.280Z,13.44
2017-10-19T01:35:37.688Z,13.5
2017-10-19T01:36:18.181Z,13.48
2017-10-19T01:36:58.624Z,13.47
2017-10-19T01:37:39.001Z,13.41
2017-10-19T01:38:19.410Z,13.46
2017-10-19T01:38:59.872Z,13.41
2017-10-19T01:39:40.311Z,13.38
2017-10-19T01:40:20.735Z,13.32
2017-10-19T01:41:01.131Z,13.41
2017-10-19T01:41:41.526Z,13.35
2017-10-19T01:42:21.977Z,13.35
2017-10-19T01:43:02.397Z,13.27
2017-10-19T01:43:42.805Z,13.21
2017-10-19T01:44:23.229Z,13.28
2017-10-19T01:45:03.668Z,13.22
2017-10-19T01:45:44.098Z,13.22
2017-10-19T01:46:24.550Z,13.22
2017-10-19T01:47:04.966Z,13.24
2017-10-19T01:47:45.371Z,13.14
2017-10-19T01:48:25.818Z,13.19
2017-10-19T01:49:06.194Z,13.17
2017-10-19T01:49:46.680Z,13.13
2017-10-19T01:50:27.045Z,13.21
2017-10-19T01:51:07.510Z,13.07
2017-10-19T01:51:47.927Z,13.04
2017-10-19T01:52:28.300Z,13.04
2017-10-19T01:53:08.749Z,13.01
2017-10-19T01:53:49.143Z,12.96
2017-10-19T01:54:29.538Z,13.03
2017-10-19T01:55:09.996Z,12.95
2017-10-19T01:55:51.391Z,12.96
2017-10-19T01:56:31.818Z,12.99
2017-10-19T01:58:51.833Z,12.96
2017-10-19T02:00:56.467Z,12.79
2017-10-19T02:01:36.845Z,12.8
2017-10-19T02:02:17.299Z,12.76
2017-10-19T02:02:57.713Z,12.81
2017-10-19T02:03:38.102Z,12.77
2017-10-19T02:04:18.472Z,12.81
2017-10-19T02:04:58.869Z,12.8
2017-10-19T02:05:39.404Z,12.77
2017-10-19T02:06:19.779Z,12.77
2017-10-19T02:07:00.141Z,12.79
2017-10-19T02:07:40.585Z,12.77
2017-10-19T02:08:20.999Z,12.85
2017-10-19T02:09:01.427Z,12.79
2017-10-19T02:09:41.883Z,12.76
2017-10-19T02:10:22.350Z,12.77
2017-10-19T02:11:02.730Z,12.74
2017-10-19T02:11:43.170Z,12.77
2017-10-19T02:12:23.579Z,12.73
2017-10-19T02:13:04.051Z,12.69
2017-10-19T02:13:44.495Z,12.69
2017-10-19T02:14:24.852Z,12.74
2017-10-19T02:15:05.402Z,12.62
2017-10-19T02:15:45.837Z,12.66
2017-10-19T02:16:26.216Z,12.73
2017-10-19T02:17:06.620Z,12.74
2017-10-19T02:17:46.988Z,12.7
2017-10-19T02:18:27.356Z,12.79
2017-10-19T02:19:07.761Z,12.8
2017-10-19T02:19:48.188Z,12.77
2017-10-19T02:20:28.551Z,12.74
2017-10-19T02:21:08.992Z,12.8
2017-10-19T02:21:49.332Z,12.81
2017-10-19T02:22:29.827Z,12.79
2017-10-19T02:23:10.174Z,12.8
2017-10-19T02:23:50.615Z,12.79
2017-10-19T02:24:31.039Z,12.8
2017-10-19T02:25:11.509Z,12.94
2017-10-19T02:25:51.893Z,12.89
2017-10-19T02:26:32.274Z,12.89
2017-10-19T02:27:12.733Z,12.94
2017-10-19T02:27:53.237Z,12.91
2017-10-19T02:28:33.603Z,12.95
2017-10-19T02:29:13.973Z,12.98
2017-10-19T02:29:54.413Z,12.99
2017-10-19T02:30:34.861Z,13.07
2017-10-19T02:31:15.352Z,12.99
2017-10-19T02:31:55.671Z,13.03
2017-10-19T02:32:36.168Z,13.04
2017-10-19T02:33:16.644Z,13.03
2017-10-19T02:33:57.172Z,13.01
2017-10-19T02:34:37.562Z,13.01
2017-10-19T02:35:17.941Z,12.96
2017-10-19T02:35:58.364Z,12.99
2017-10-19T02:36:38.744Z,12.96
2017-10-19T02:37:19.167Z,12.96
2017-10-19T02:37:59.694Z,12.98
2017-10-19T02:38:40.053Z,12.99
2017-10-19T02:39:20.479Z,12.94
2017-10-19T02:40:00.925Z,12.91
2017-10-19T02:40:41.321Z,12.89
2017-10-19T02:41:21.720Z,12.8
2017-10-19T02:42:02.165Z,12.8
2017-10-19T02:42:42.518Z,12.81
2017-10-19T02:43:22.880Z,12.84
2017-10-19T02:44:03.310Z,12.77
2017-10-19T02:44:43.673Z,12.79
2017-10-19T02:45:24.037Z,12.77
2017-10-19T02:46:04.445Z,12.73
2017-10-19T02:46:44.916Z,12.81
2017-10-19T02:47:25.254Z,12.77
2017-10-19T02:48:05.860Z,12.76
2017-10-19T02:48:46.162Z,12.79
2017-10-19T02:49:26.678Z,12.79
2017-10-19T02:50:07.021Z,12.73
2017-10-19T02:50:47.524Z,12.62
2017-10-19T02:51:27.924Z,12.63
2017-10-19T02:52:08.411Z,12.58
2017-10-19T02:52:48.850Z,12.67
2017-10-19T02:53:29.257Z,12.66
2017-10-19T02:54:09.608Z,12.67
2017-10-19T02:54:49.987Z,12.74
2017-10-19T02:55:30.407Z,12.73
2017-10-19T02:56:10.779Z,12.77
2017-10-19T02:56:51.166Z,12.67
2017-10-19T02:57:31.563Z,12.76
2017-10-19T02:58:11.950Z,12.74
2017-10-19T02:58:52.390Z,12.61
2017-10-19T02:59:32.858Z,12.74
2017-10-19T03:00:13.245Z,12.62
2017-10-19T03:00:53.698Z,12.59
2017-10-19T03:01:34.086Z,12.62
2017-10-19T03:02:14.487Z,12.61
2017-10-19T03:02:54.903Z,12.61
2017-10-19T03:03:35.365Z,12.44
2017-10-19T03:04:15.823Z,12.48
2017-10-19T03:04:56.249Z,12.48
2017-10-19T03:05:36.662Z,12.46
2017-10-19T03:06:17.122Z,12.49
2017-10-19T03:06:57.536Z,12.33
2017-10-19T03:07:37.988Z,12.37
2017-10-19T03:08:18.458Z,12.37
2017-10-19T03:08:58.916Z,12.36
2017-10-19T03:09:39.350Z,12.3
2017-10-19T03:10:19.770Z,12.33
2017-10-19T03:11:00.199Z,12.3
2017-10-19T03:11:40.619Z,12.37
2017-10-19T03:12:21.153Z,12.33
2017-10-19T03:13:01.605Z,12.36
2017-10-19T03:13:42.046Z,12.31
2017-10-19T03:14:22.543Z,12.33
2017-10-19T03:15:02.934Z,12.25
2017-10-19T03:17:06.701Z,12.33
2017-10-19T03:19:16.378Z,12.25
2017-10-19T03:20:05.053Z,12.21
2017-10-19T03:20:45.482Z,12.16
2017-10-19T03:21:26.079Z,12.16
2017-10-19T03:22:06.727Z,12.19
2017-10-19T03:22:47.292Z,12.16
2017-10-19T03:23:27.981Z,12.13
2017-10-19T03:24:08.718Z,12.16
2017-10-19T03:24:49.373Z,12.15
2017-10-19T03:25:29.909Z,12.13
2017-10-19T03:26:10.576Z,12.01
2017-10-19T03:26:51.345Z,12.11
2017-10-19T03:27:32.034Z,12.15
2017-10-19T03:28:12.740Z,12.13
2017-10-19T03:28:53.190Z,12.19
2017-10-19T03:29:33.942Z,12.13
2017-10-19T03:30:14.626Z,12.04
2017-10-19T03:30:56.274Z,12.12
2017-10-19T03:31:37.440Z,12.15
2017-10-19T03:32:17.989Z,12.04
2017-10-19T03:32:58.552Z,12.12
2017-10-19T03:33:39.239Z,12.11
2017-10-19T03:34:20.052Z,12.13
2017-10-19T03:35:00.697Z,12.05
2017-10-19T03:35:41.357Z,12.13
2017-10-19T03:36:21.909Z,12.12
2017-10-19T03:37:03.277Z,12.13
2017-10-19T03:37:47.310Z,12.19
2017-10-19T03:38:27.975Z,12.13
2017-10-19T03:39:09.391Z,12.25
2017-10-19T03:39:50.062Z,12.29
2017-10-19T03:40:30.741Z,12.33
2017-10-19T03:41:14.132Z,12.43
2017-10-19T03:41:54.785Z,12.43
2017-10-19T03:42:36.360Z,12.48
2017-10-19T03:43:17.142Z,12.52
2017-10-19T03:43:57.693Z,12.54
2017-10-19T03:44:38.345Z,12.61
2017-10-19T03:45:18.890Z,12.56
2017-10-19T03:46:00.560Z,12.58
2017-10-19T03:46:41.224Z,12.59
2017-10-19T03:47:22.361Z,12.56
2017-10-19T03:48:02.637Z,12.62
2017-10-19T03:48:43.227Z,12.59
2017-10-19T03:49:30.372Z,12.59
2017-10-19T03:50:11.028Z,12.56
2017-10-19T03:50:52.499Z,12.59
2017-10-19T03:51:33.171Z,12.58
2017-10-19T03:52:14.029Z,12.58
2017-10-19T03:52:54.555Z,12.61
2017-10-19T03:53:36.862Z,12.71
2017-10-19T03:54:16.806Z,12.7
2017-10-19T03:54:59.099Z,12.67
2017-10-19T03:55:39.672Z,12.63
2017-10-19T03:56:21.306Z,12.77
2017-10-19T03:57:05.564Z,12.7
2017-10-19T03:57:46.129Z,12.71
2017-10-19T03:58:27.383Z,12.77
2017-10-19T03:59:08.135Z,12.77
2017-10-19T03:59:49.198Z,12.73
2017-10-19T04:00:29.954Z,12.76
2017-10-19T04:01:10.485Z,12.79
2017-10-19T04:41:06.301Z,11.63
2017-10-19T04:41:48.055Z,11.63
2017-10-19T04:42:29.117Z,11.59
2017-10-19T04:43:09.867Z,11.48
2017-10-19T04:43:50.892Z,11.45
2017-10-19T04:44:31.040Z,11.54
2017-10-19T04:45:12.442Z,11.46
2017-10-19T04:45:53.058Z,11.44
2017-10-19T04:46:34.551Z,11.42
2017-10-19T04:47:16.021Z,11.49
2017-10-19T04:47:56.690Z,11.42
2017-10-19T04:48:37.269Z,11.53
2017-10-19T04:49:18.103Z,11.53
2017-10-19T04:49:58.751Z,11.45
2017-10-19T04:50:39.265Z,11.48
2017-10-19T04:51:19.816Z,11.45
2017-10-19T04:52:00.549Z,11.54
2017-10-19T04:52:41.896Z,11.54
2017-10-19T04:53:21.812Z,11.56
2017-10-19T04:54:02.365Z,11.54
2017-10-19T04:54:42.998Z,11.48
2017-10-19T04:55:24.453Z,11.63
2017-10-19T04:56:05.244Z,11.62
2017-10-19T04:56:45.898Z,11.64
2017-10-19T04:57:26.551Z,11.63
2017-10-19T04:58:07.810Z,11.67
2017-10-19T04:58:48.450Z,11.69
2017-10-19T04:59:29.107Z,11.67
2017-10-19T05:00:09.988Z,11.67
2017-10-19T05:00:50.634Z,11.64
2017-10-19T05:01:31.165Z,11.72
2017-10-19T05:02:12.424Z,11.62
2017-10-19T05:02:53.928Z,11.78
2017-10-19T05:03:34.601Z,11.79
2017-10-19T05:04:15.942Z,11.74
2017-10-19T05:04:57.523Z,11.85
2017-10-19T05:05:38.733Z,11.97
2017-10-19T05:06:19.847Z,12
2017-10-19T05:07:00.592Z,11.9
2017-10-19T05:07:41.263Z,12.08
2017-10-19T05:08:21.785Z,12
2017-10-19T05:09:02.568Z,12.15
2017-10-19T05:09:44.143Z,12.08
2017-10-19T05:10:24.759Z,12.11
2017-10-19T05:11:05.550Z,12.18
2017-10-19T05:11:46.205Z,12.29
2017-10-19T05:12:26.787Z,12.29
2017-10-19T05:13:08.026Z,12.31
2017-10-19T05:13:48.675Z,12.37
2017-10-19T05:14:30.899Z,12.31
2017-10-19T05:15:09.878Z,12.26
2017-10-19T05:15:51.903Z,12.31
2017-10-19T05:16:32.003Z,12.33
2017-10-19T05:17:12.656Z,12.36
2017-10-19T05:17:53.310Z,12.36
2017-10-19T05:18:34.446Z,12.31
2017-10-19T05:19:16.256Z,12.37
2017-10-19T05:19:56.807Z,12.33
2017-10-19T05:20:37.560Z,12.37
2017-10-19T05:21:18.974Z,12.41
2017-10-19T05:22:00.077Z,12.4
2017-10-19T05:22:40.850Z,12.48
2017-10-19T05:23:21.505Z,12.58
2017-10-19T05:24:02.058Z,12.51
2017-10-19T05:24:42.708Z,12.51
2017-10-19T05:25:25.000Z,12.52
2017-10-19T05:26:05.553Z,12.46
2017-10-19T05:26:46.167Z,12.41
2017-10-19T05:27:26.957Z,12.54
2017-10-19T05:28:07.488Z,12.58
2017-10-19T05:28:49.405Z,12.54
2017-10-19T05:29:29.224Z,12.52
2017-10-19T05:30:09.846Z,12.46
2017-10-19T05:30:51.714Z,12.44
2017-10-19T05:31:44.699Z,12.52
2017-10-19T05:33:54.915Z,12.44
2017-10-19T05:35:17.903Z,12.44
2017-10-19T05:37:58.218Z,12.48
2017-10-19T05:38:54.408Z,12.55
2017-10-19T05:39:47.099Z,12.54
2017-10-19T05:40:41.656Z,12.58
2017-10-19T05:41:35.134Z,12.58
2017-10-19T05:43:34.820Z,12.56
2017-10-19T05:44:30.070Z,12.59
2017-10-19T05:45:27.303Z,12.63
2017-10-19T05:46:24.238Z,12.54
2017-10-19T05:47:24.507Z,12.44
2017-10-19T05:51:04.033Z,12.69
2017-10-19T05:51:59.254Z,12.62
2017-10-19T05:52:51.333Z,12.7
2017-10-19T05:53:46.194Z,12.56
2017-10-19T05:54:43.150Z,12.62
2017-10-19T05:55:38.345Z,12.61
2017-10-19T05:56:31.951Z,12.54
2017-10-19T05:57:25.588Z,12.59
2017-10-19T05:58:19.858Z,12.55
2017-10-19T05:59:17.487Z,12.56
2017-10-19T06:00:11.421Z,12.46
2017-10-19T06:01:07.908Z,12.54
2017-10-19T06:02:04.713Z,12.54
2017-10-19T06:03:01.418Z,12.59
2017-10-19T06:03:56.559Z,12.66
2017-10-19T06:05:51.835Z,12.66
2017-10-19T06:06:44.958Z,12.71
2017-10-19T06:07:39.399Z,12.8
2017-10-19T06:08:32.920Z,12.79
2017-10-19T06:09:27.816Z,12.77
2017-10-19T06:10:23.153Z,12.77
2017-10-19T06:11:19.515Z,12.73
2017-10-19T06:12:13.180Z,12.76
2017-10-19T06:13:08.055Z,12.74
2017-10-19T06:14:03.458Z,12.7
2017-10-19T06:14:57.500Z,12.77
2017-10-19T06:15:52.201Z,12.79
2017-10-19T06:16:45.405Z,12.79
2017-10-19T06:17:40.464Z,12.94
2017-10-19T06:18:37.685Z,12.94
2017-10-19T06:19:17.593Z,12.8
2017-10-19T06:19:58.489Z,12.8
2017-10-19T06:20:39.748Z,12.84
2017-10-19T06:21:21.209Z,12.89
2017-10-19T06:22:02.038Z,12.87
2017-10-19T06:22:43.249Z,12.81
2017-10-19T06:23:24.750Z,12.87
2017-10-19T06:24:05.653Z,12.87
2017-10-19T06:24:47.749Z,12.92
2017-10-19T06:25:28.379Z,12.95
2017-10-19T06:27:26.823Z,13.06
2017-10-19T06:28:23.218Z,13.06
2017-10-19T06:30:29.002Z,13.19
2017-10-19T06:31:27.490Z,13.21
2017-10-19T06:32:26.096Z,13.29
2017-10-19T06:33:23.761Z,13.46
2017-10-19T06:34:20.077Z,13.46
2017-10-19T06:35:17.673Z,13.51
2017-10-19T06:36:15.486Z,13.59
2017-10-19T06:37:10.363Z,13.63
2017-10-19T06:37:51.983Z,13.86
2017-10-19T06:38:36.346Z,13.88
2017-10-19T06:39:21.521Z,13.88
2017-10-19T06:40:02.873Z,13.98
2017-10-19T06:40:44.506Z,14.02
2017-10-19T06:41:28.871Z,14.11
2017-10-19T06:42:09.631Z,14.11
2017-10-19T06:42:53.523Z,14.09
2017-10-19T06:43:35.019Z,14.12
2017-10-19T06:44:15.501Z,14.01
2017-10-19T06:44:57.176Z,13.98
2017-10-19T06:45:38.520Z,13.99
2017-10-19T06:46:18.563Z,14.05
2017-10-19T06:47:00.456Z,13.88
2017-10-19T06:47:43.024Z,13.88
2017-10-19T06:48:23.004Z,13.94
2017-10-19T06:50:45.450Z,14.09
2017-10-19T06:51:43.271Z,14.11
2017-10-19T06:52:38.182Z,14.16
2017-10-19T06:53:32.378Z,14.13
2017-10-19T06:54:13.827Z,14.08
2017-10-19T06:54:54.808Z,14.01
2017-10-19T06:55:35.386Z,14.12
2017-10-19T06:56:19.539Z,14.08
2017-10-19T06:57:04.893Z,14.09
2017-10-19T06:57:45.107Z,14.12
2017-10-19T06:58:34.396Z,14.11
2017-10-19T06:59:15.392Z,14.17
2017-10-19T06:59:56.394Z,14.23
2017-10-19T07:00:37.034Z,14.27
2017-10-19T07:01:18.093Z,14.39
2017-10-19T07:02:01.396Z,14.41
2017-10-19T07:02:48.941Z,14.52
2017-10-19T07:10:57.726Z,15.2
2017-10-19T07:11:57.972Z,15.3
2017-10-19T07:13:56.115Z,15.41
2017-10-19T07:14:40.432Z,15.59
2017-10-19T07:15:21.277Z,15.67
2017-10-19T07:16:01.596Z,15.84
2017-10-19T07:16:42.143Z,15.86
2017-10-19T07:17:22.529Z,15.86
2017-10-19T07:18:03.344Z,15.73
2017-10-19T07:18:48.100Z,15.56
2017-10-19T07:21:06.213Z,15.28
2017-10-19T07:22:02.885Z,15.37
2017-10-19T07:22:44.040Z,15.33
2017-10-19T07:23:25.539Z,15.4
2017-10-19T07:24:07.023Z,15.38
2017-10-19T07:24:49.305Z,15.35
2017-10-19T07:25:30.853Z,15.38
2017-10-19T07:26:15.560Z,15.35
2017-10-19T07:27:07.871Z,15.59
2017-10-19T07:27:48.788Z,15.58
2017-10-19T07:28:35.603Z,15.6
2017-10-19T07:35:36.183Z,16.62
2017-10-19T07:36:30.328Z,16.85
2017-10-19T07:38:14.569Z,17.03
2017-10-19T07:39:09.385Z,17.09
2017-10-19T07:40:04.713Z,17.09
2017-10-19T07:40:59.847Z,17.12
2017-10-19T07:43:15.398Z,17.28
2017-10-19T07:43:59.051Z,17.25
2017-10-19T07:44:39.614Z,17.25
2017-10-19T07:45:20.319Z,17.33
2017-10-19T07:46:01.034Z,17.51
2017-10-19T07:46:41.525Z,17.38
2017-10-19T07:47:22.182Z,17.32
2017-10-19T07:48:03.739Z,17.39
2017-10-19T07:48:45.084Z,17.35
2017-10-19T07:49:26.033Z,17.39
2017-10-19T07:50:06.479Z,17.46
2017-10-19T07:50:47.035Z,17.55
2017-10-19T07:51:27.328Z,17.43
2017-10-19T07:52:08.110Z,17.3
2017-10-19T07:52:48.774Z,17.36
2017-10-19T07:53:29.431Z,17.36
2017-10-19T07:54:10.370Z,17.39
2017-10-19T07:54:51.086Z,17.24
2017-10-19T07:55:31.632Z,17.17
2017-10-19T07:56:12.329Z,17.02
2017-10-19T07:56:52.792Z,16.8
2017-10-19T07:57:33.289Z,16.78
2017-10-19T07:58:13.690Z,16.77
2017-10-19T07:58:54.957Z,16.77
2017-10-19T07:59:35.814Z,16.85
2017-10-19T08:00:17.153Z,16.81
2017-10-19T08:00:57.743Z,16.77
2017-10-19T08:01:38.403Z,16.85
2017-10-19T08:02:21.789Z,16.95
2017-10-19T08:03:03.607Z,16.98
2017-10-19T08:03:42.860Z,17.21
2017-10-19T08:04:23.569Z,17.42
2017-10-19T08:05:05.011Z,17.7
2017-10-19T08:05:44.831Z,17.84
2017-10-19T08:06:27.035Z,17.89
2017-10-19T08:07:08.504Z,18.2
2017-10-19T08:07:49.245Z,18.31
2017-10-19T08:08:30.984Z,18.44
2017-10-19T08:09:11.493Z,18.49
2017-10-19T08:09:52.721Z,18.72
2017-10-19T08:10:34.496Z,18.83
2017-10-19T08:11:15.564Z,18.91
2017-10-19T08:11:55.872Z,18.96
2017-10-19T08:12:36.395Z,18.94
2017-10-19T08:13:19.287Z,19.02
2017-10-19T08:14:00.864Z,19.2
2017-10-19T08:14:41.381Z,19.27
2017-10-19T08:15:21.857Z,19.49
2017-10-19T08:16:03.234Z,19.57
2017-10-19T08:16:43.518Z,19.5
2017-10-19T08:17:24.261Z,19.53
2017-10-19T08:18:06.913Z,19.6
2017-10-19T08:18:48.654Z,19.79
2017-10-19T08:19:30.249Z,19.78
2017-10-19T08:20:13.725Z,19.98
2017-10-19T08:20:51.020Z,20.05
2017-10-19T08:21:32.559Z,20.3
2017-10-19T08:22:14.129Z,20.3
2017-10-19T08:22:54.252Z,20.19
2017-10-19T08:23:35.936Z,20.05
2017-10-19T08:24:16.435Z,20.01
2017-10-19T08:24:57.399Z,19.9
2017-10-19T08:25:39.218Z,19.87
2017-10-19T08:26:19.450Z,19.78
2017-10-19T08:27:00.014Z,19.85
2017-10-19T08:27:41.220Z,20.1
2017-10-19T08:28:21.878Z,20.4
2017-10-19T08:29:03.211Z,20.73
2017-10-19T08:29:43.494Z,20.97
2017-10-19T08:30:24.915Z,21.15
2017-10-19T08:31:05.496Z,21.22
2017-10-19T08:31:45.910Z,21.38
2017-10-19T08:32:26.395Z,21.38
2017-10-19T08:33:06.765Z,21.4
2017-10-19T08:33:47.362Z,21.45
2017-10-19T08:34:27.909Z,21.59
2017-10-19T08:35:08.384Z,21.53
2017-10-19T08:35:48.837Z,21.55
2017-10-19T08:36:29.376Z,21.38
2017-10-19T08:37:10.109Z,21.36
2017-10-19T08:37:50.508Z,21.3
2017-10-19T08:39:48.497Z,21.27
2017-10-19T08:40:44.404Z,21.16
2017-10-19T08:41:39.904Z,21.01
2017-10-19T08:42:34.592Z,20.93
2017-10-19T08:43:30.025Z,20.83
2017-10-19T08:45:43.215Z,20.91
2017-10-19T08:46:38.098Z,20.85
2017-10-19T08:47:23.362Z,20.79
2017-10-19T08:48:03.970Z,20.97
2017-10-19T08:48:44.320Z,21.15
2017-10-19T08:49:24.960Z,21.16
2017-10-19T08:50:05.685Z,21
2017-10-19T08:50:46.958Z,20.96
2017-10-19T08:51:27.705Z,20.81
2017-10-19T08:52:08.374Z,20.71
2017-10-19T08:52:50.560Z,20.66
2017-10-19T08:53:31.642Z,20.85
2017-10-19T08:54:12.235Z,21.06
2017-10-19T08:54:52.445Z,21.19
2017-10-19T08:55:32.944Z,21.37
2017-10-19T08:56:14.073Z,21.34
2017-10-19T08:56:55.812Z,21.37
2017-10-19T08:57:35.765Z,21.31
2017-10-19T08:58:16.402Z,21.38
2017-10-19T08:58:56.925Z,21.22
2017-10-19T08:59:37.694Z,21.03
2017-10-19T09:00:18.875Z,20.87
2017-10-19T09:00:59.478Z,20.96
2017-10-19T09:01:44.323Z,20.96
2017-10-19T09:02:29.129Z,21.03
2017-10-19T09:03:09.853Z,21
2017-10-19T09:03:50.333Z,21.09
2017-10-19T09:04:30.914Z,21.27
2017-10-19T09:05:11.423Z,21.3
2017-10-19T09:05:53.044Z,21.43
2017-10-19T09:06:33.924Z,21.49
2017-10-19T09:07:14.900Z,21.73
2017-10-19T09:07:56.782Z,21.82
2017-10-19T09:08:38.298Z,21.96
2017-10-19T09:09:19.391Z,22.05
2017-10-19T09:10:00.099Z,21.94
2017-10-19T09:10:40.794Z,21.91
2017-10-19T09:11:21.318Z,21.94
2017-10-19T09:12:01.800Z,21.99
2017-10-19T09:12:44.962Z,21.77
2017-10-19T09:13:26.678Z,21.77
2017-10-19T09:14:11.742Z,21.71
2017-10-19T09:14:57.343Z,21.71
2017-10-19T09:15:37.391Z,21.71
2017-10-19T09:16:17.800Z,21.96
2017-10-19T09:17:00.760Z,21.99
2017-10-19T09:17:42.849Z,22.08
2017-10-19T09:18:25.422Z,22.08
2017-10-19T09:21:22.893Z,21.83
2017-10-19T09:23:39.127Z,21.55
2017-10-19T09:24:35.631Z,21.59
2017-10-19T09:25:40.314Z,21.7
2017-10-19T09:26:38.945Z,21.74
2017-10-19T09:28:40.158Z,21.53
2017-10-19T09:31:44.342Z,22.29
2017-10-19T09:32:41.654Z,22.41
2017-10-19T09:34:46.070Z,22.63
2017-10-19T09:36:56.729Z,23.07
2017-10-19T09:37:34.479Z,23.12
2017-10-19T09:38:14.979Z,23.03
2017-10-19T09:38:55.690Z,23.21
2017-10-19T09:39:36.745Z,23.12
2017-10-19T09:40:18.333Z,23.23
2017-10-19T09:40:58.662Z,23.22
2017-10-19T09:41:39.123Z,23.37
2017-10-19T09:42:19.546Z,23.57
2017-10-19T09:43:00.223Z,23.71
2017-10-19T09:43:44.339Z,23.67
2017-10-19T09:44:23.464Z,23.78
2017-10-19T09:45:04.728Z,23.79
2017-10-19T09:45:45.182Z,23.77
2017-10-19T09:46:25.764Z,23.74
2017-10-19T09:47:06.724Z,23.67
2017-10-19T09:47:48.595Z,23.45
2017-10-19T09:48:29.426Z,23.34
2017-10-19T09:49:11.230Z,23.16
2017-10-19T09:49:52.921Z,22.94
2017-10-19T09:50:35.384Z,22.78
2017-10-19T09:51:16.207Z,22.59
2017-10-19T09:51:57.617Z,22.49
2017-10-19T09:52:37.664Z,22.54
2017-10-19T09:53:18.603Z,22.66
2017-10-19T09:53:59.201Z,22.66
2017-10-19T09:56:25.349Z,22.78
2017-10-19T09:57:12.897Z,22.97
2017-10-19T09:57:55.530Z,23.22
2017-10-19T09:58:37.350Z,23.39
2017-10-19T09:59:17.751Z,23.41
2017-10-19T09:59:58.535Z,23.45
2017-10-19T10:00:39.164Z,23.67
2017-10-19T10:01:21.824Z,23.67
2017-10-19T10:02:03.701Z,23.74
2017-10-19T10:02:46.752Z,23.79
2017-10-19T10:41:38.876Z,24.68
2017-10-19T10:42:43.561Z,24.75
2017-10-19T10:43:42.373Z,24.64
2017-10-19T10:44:40.527Z,24.53
2017-10-19T10:45:41.406Z,24.49
2017-10-19T10:48:07.905Z,24.31
2017-10-19T10:49:06.506Z,24.21
2017-10-19T10:50:00.999Z,24.37
2017-10-19T10:50:42.380Z,24.49
2017-10-19T10:51:25.784Z,24.59
2017-10-19T10:52:08.230Z,24.45
2017-10-19T10:52:50.156Z,24.46
2017-10-19T10:53:30.379Z,24.6
2017-10-19T10:54:14.457Z,24.61
2017-10-19T10:54:55.503Z,24.56
2017-10-19T10:58:05.149Z,24.39
2017-10-19T10:59:05.816Z,24.26
2017-10-19T11:02:48.156Z,24.05
2017-10-19T11:04:50.058Z,24.06
2017-10-19T11:05:50.801Z,23.96
2017-10-19T11:06:49.620Z,23.9
2017-10-19T11:07:46.803Z,23.96
2017-10-19T11:08:57.783Z,24.11
2017-10-19T11:09:53.714Z,24.29
2017-10-19T11:16:54.269Z,24.97
2017-10-19T11:17:52.177Z,24.9
2017-10-19T11:18:39.282Z,24.8
2017-10-19T11:19:21.749Z,24.79
2017-10-19T11:20:05.263Z,24.63
2017-10-19T11:20:48.905Z,24.6
2017-10-19T11:21:33.017Z,24.63
2017-10-19T11:22:13.587Z,24.64
2017-10-19T11:22:55.182Z,24.56
2017-10-19T11:23:39.518Z,24.79
2017-10-19T11:30:15.645Z,25.07
2017-10-19T11:31:26.056Z,24.9
2017-10-19T11:32:04.603Z,24.93
2017-10-19T11:32:52.804Z,24.9
2017-10-19T11:33:34.595Z,24.82
2017-10-19T11:34:15.852Z,24.86
2017-10-19T11:34:59.563Z,24.77
2017-10-19T11:35:44.794Z,24.77
2017-10-19T11:36:30.456Z,24.66
2017-10-19T11:37:11.710Z,24.66
2017-10-19T11:37:53.145Z,24.56
2017-10-19T11:38:35.603Z,24.49
2017-10-19T11:39:16.197Z,24.29
2017-10-19T11:39:56.803Z,24.11
2017-10-19T11:40:37.604Z,23.84
2017-10-19T11:41:23.853Z,23.82
2017-10-19T11:42:09.531Z,23.78
2017-10-19T11:42:52.780Z,23.84